This is the latest recevied weather packets stored in our database for station/object EA1GEC-10. If no packets are shown the sender has not sent any weather packets the latest 10 day(s).
| Time | Temp. | Humidity | Pressure | Rain* | Wind** | Luminosity | Snow |
|---|---|---|---|---|---|---|---|
| 1777643897 | 20° C | 55% | 1025.2 hPa | - | - | - | - |
| 1777642997 | 20.56° C | 51% | 1025.3 hPa | - | - | - | - |
| 1777642097 | 23.33° C | 47% | 1025.3 hPa | - | - | - | - |
| 1777641197 | 20.56° C | 44% | 1025.4 hPa | - | - | - | - |
| 1777640297 | 30.56° C | 38% | 1025.7 hPa | - | - | - | - |
| 1777639397 | 28.89° C | 47% | 1025.8 hPa | - | - | - | - |
| 1777638497 | 18.89° C | 57% | 1025.9 hPa | - | - | - | - |
| 1777637597 | 20.56° C | 53% | 1025.9 hPa | - | - | - | - |
| 1777635806 | 20.56° C | 57% | 1026 hPa | - | - | - | - |
| 1777634897 | 18.89° C | 60% | 1026.2 hPa | - | - | - | - |
| 1777633997 | 17.22° C | 62% | 1026.3 hPa | - | - | - | - |
| 1777633096 | 17.22° C | 61% | 1026.1 hPa | - | - | - | - |
| 1777632196 | 18.89° C | 57% | 1026 hPa | - | - | - | - |
| 1777631298 | 20° C | 58% | 1026.1 hPa | - | - | - | - |
| 1777630396 | 18.89° C | 60% | 1026.2 hPa | - | - | - | - |
| 1777629496 | 18.33° C | 61% | 1026.3 hPa | - | - | - | - |
| 1777628596 | 17.78° C | 62% | 1026.3 hPa | - | - | - | - |
| 1777627696 | 17.78° C | 62% | 1026.3 hPa | - | - | - | - |
| 1777625896 | 17.22° C | 66% | 1026.4 hPa | - | - | - | - |
| 1777624996 | 16.67° C | 67% | 1026.4 hPa | - | - | - | - |
| 1777624095 | 16.11° C | 68% | 1026.5 hPa | - | - | - | - |
| 1777623195 | 16.67° C | 69% | 1026.4 hPa | - | - | - | - |
| 1777622295 | 16.11° C | 71% | 1026.3 hPa | - | - | - | - |
| 1777621395 | 15° C | 73% | 1026.3 hPa | - | - | - | - |
| 1777620495 | 15° C | 74% | 1026.3 hPa | - | - | - | - |
* Rain since midnight (hover to see other rain measurements)
** Current wind speed in m/s (hover to see current wind gust speed)